Archival Weather

Tokyo Intl

Tokyo, Japan (RJTT)

Report from: Saturday, April 1, 2023 7:00 AM JST
Current time: Sunday, July 14, 2024 7:16 PM JST

Current weather – Weather history – Daily summaries
Weather forecast

Temperature14.0°C (57.2°F)
Dew point10.0°C (50.0°F)
Winds 3 kts (1.5 m/s, 3.5 mph) Northwest (320°)
Clouds Sky clear
Altimeter30.00 in.Hg (1016 mB)
Relative humidity77 %
Density altitude-38 ft. (-11 m)
Remarks Ceiling and visibility OK
No significant changes expected in the next two hours
Flight conditions Visual Meteorological Conditions
Raw dataRJTT 312200Z 32003KT CAVOK 14/10 Q1016 NOSIG RMK A3003
An error has occurred. This application may no longer respond until reloaded. Reload 🗙